sensor_id;sensor_type;location;lat;lon;timestamp;P1;durP1;ratioP1;P2;durP2;ratioP2
67191;SDS011;54120;53.504;49.426;2023-02-13T00:01:29;17.55;;;7.80;;
67191;SDS011;54120;53.504;49.426;2023-02-13T00:03:56;18.02;;;9.65;;
67191;SDS011;54120;53.504;49.426;2023-02-13T00:06:22;18.75;;;9.68;;
67191;SDS011;54120;53.504;49.426;2023-02-13T00:08:48;15.77;;;9.00;;
67191;SDS011;54120;53.504;49.426;2023-02-13T00:11:14;18.58;;;9.23;;
67191;SDS011;54120;53.504;49.426;2023-02-13T00:13:40;16.98;;;8.07;;
67191;SDS011;54120;53.504;49.426;2023-02-13T00:16:06;18.45;;;9.45;;
67191;SDS011;54120;53.504;49.426;2023-02-13T00:18:34;19.85;;;8.85;;
67191;SDS011;54120;53.504;49.426;2023-02-13T00:21:03;14.95;;;8.13;;
67191;SDS011;54120;53.504;49.426;2023-02-13T00:23:31;17.17;;;9.10;;
67191;SDS011;54120;53.504;49.426;2023-02-13T00:25:58;17.88;;;9.48;;
67191;SDS011;54120;53.504;49.426;2023-02-13T00:28:25;24.20;;;10.70;;
67191;SDS011;54120;53.504;49.426;2023-02-13T00:30:51;17.98;;;9.27;;
67191;SDS011;54120;53.504;49.426;2023-02-13T00:33:17;23.98;;;10.02;;
67191;SDS011;54120;53.504;49.426;2023-02-13T00:35:43;18.70;;;9.07;;
67191;SDS011;54120;53.504;49.426;2023-02-13T00:38:09;17.50;;;8.60;;
67191;SDS011;54120;53.504;49.426;2023-02-13T00:40:35;20.33;;;9.40;;
67191;SDS011;54120;53.504;49.426;2023-02-13T00:43:00;18.15;;;8.85;;
67191;SDS011;54120;53.504;49.426;2023-02-13T00:45:27;17.50;;;9.02;;
67191;SDS011;54120;53.504;49.426;2023-02-13T00:47:53;19.67;;;9.98;;
67191;SDS011;54120;53.504;49.426;2023-02-13T00:50:18;16.52;;;9.07;;
67191;SDS011;54120;53.504;49.426;2023-02-13T00:52:44;19.23;;;9.10;;
67191;SDS011;54120;53.504;49.426;2023-02-13T00:55:10;13.82;;;7.53;;
67191;SDS011;54120;53.504;49.426;2023-02-13T00:57:37;17.60;;;8.68;;
67191;SDS011;54120;53.504;49.426;2023-02-13T01:00:03;19.50;;;10.32;;
67191;SDS011;54120;53.504;49.426;2023-02-13T01:02:29;18.30;;;9.50;;
67191;SDS011;54120;53.504;49.426;2023-02-13T01:04:55;17.30;;;9.30;;
67191;SDS011;54120;53.504;49.426;2023-02-13T01:07:21;18.73;;;9.30;;
67191;SDS011;54120;53.504;49.426;2023-02-13T01:09:47;18.10;;;10.00;;
67191;SDS011;54120;53.504;49.426;2023-02-13T01:12:13;18.60;;;8.18;;
67191;SDS011;54120;53.504;49.426;2023-02-13T01:14:39;17.55;;;8.35;;
67191;SDS011;54120;53.504;49.426;2023-02-13T01:17:05;16.60;;;9.45;;
67191;SDS011;54120;53.504;49.426;2023-02-13T01:19:31;15.32;;;8.45;;
67191;SDS011;54120;53.504;49.426;2023-02-13T01:21:57;17.10;;;8.88;;
67191;SDS011;54120;53.504;49.426;2023-02-13T01:24:23;18.83;;;9.32;;
67191;SDS011;54120;53.504;49.426;2023-02-13T01:26:48;17.15;;;9.52;;
67191;SDS011;54120;53.504;49.426;2023-02-13T01:29:14;17.27;;;8.98;;
67191;SDS011;54120;53.504;49.426;2023-02-13T01:31:40;16.23;;;9.38;;
67191;SDS011;54120;53.504;49.426;2023-02-13T01:34:06;16.27;;;10.30;;
67191;SDS011;54120;53.504;49.426;2023-02-13T01:36:32;22.60;;;11.40;;
67191;SDS011;54120;53.504;49.426;2023-02-13T01:38:58;18.60;;;10.43;;
67191;SDS011;54120;53.504;49.426;2023-02-13T01:41:25;19.30;;;10.70;;
67191;SDS011;54120;53.504;49.426;2023-02-13T01:43:56;18.85;;;10.27;;
67191;SDS011;54120;53.504;49.426;2023-02-13T01:46:29;20.50;;;10.38;;
67191;SDS011;54120;53.504;49.426;2023-02-13T01:49:20;18.63;;;10.52;;
67191;SDS011;54120;53.504;49.426;2023-02-13T01:51:48;17.27;;;10.63;;
67191;SDS011;54120;53.504;49.426;2023-02-13T01:54:17;18.90;;;10.02;;
67191;SDS011;54120;53.504;49.426;2023-02-13T01:56:47;20.13;;;11.15;;
67191;SDS011;54120;53.504;49.426;2023-02-13T01:59:18;19.77;;;9.75;;
67191;SDS011;54120;53.504;49.426;2023-02-13T02:01:46;16.48;;;9.93;;
67191;SDS011;54120;53.504;49.426;2023-02-13T02:04:17;19.38;;;10.07;;
67191;SDS011;54120;53.504;49.426;2023-02-13T02:06:48;20.15;;;9.57;;
67191;SDS011;54120;53.504;49.426;2023-02-13T02:09:22;16.77;;;9.85;;
67191;SDS011;54120;53.504;49.426;2023-02-13T02:12:09;17.60;;;9.32;;
67191;SDS011;54120;53.504;49.426;2023-02-13T02:14:44;17.15;;;8.50;;
67191;SDS011;54120;53.504;49.426;2023-02-13T02:17:10;15.45;;;9.60;;
67191;SDS011;54120;53.504;49.426;2023-02-13T02:30:29;21.80;;;10.77;;
67191;SDS011;54120;53.504;49.426;2023-02-13T02:41:17;17.85;;;9.73;;
67191;SDS011;54120;53.504;49.426;2023-02-13T02:44:12;18.58;;;9.70;;
67191;SDS011;54120;53.504;49.426;2023-02-13T02:49:43;18.17;;;10.55;;
67191;SDS011;54120;53.504;49.426;2023-02-13T02:52:28;18.38;;;9.80;;
67191;SDS011;54120;53.504;49.426;2023-02-13T02:55:06;18.00;;;9.65;;
67191;SDS011;54120;53.504;49.426;2023-02-13T02:58:24;20.60;;;9.30;;
67191;SDS011;54120;53.504;49.426;2023-02-13T03:01:19;17.10;;;9.45;;
67191;SDS011;54120;53.504;49.426;2023-02-13T03:04:22;17.23;;;8.95;;
67191;SDS011;54120;53.504;49.426;2023-02-13T03:07:17;18.02;;;9.35;;
67191;SDS011;54120;53.504;49.426;2023-02-13T03:09:47;16.75;;;10.30;;
67191;SDS011;54120;53.504;49.426;2023-02-13T03:12:39;18.17;;;9.93;;
67191;SDS011;54120;53.504;49.426;2023-02-13T03:15:29;16.20;;;9.95;;
67191;SDS011;54120;53.504;49.426;2023-02-13T03:17:55;16.38;;;10.50;;
67191;SDS011;54120;53.504;49.426;2023-02-13T03:20:45;18.75;;;9.57;;
67191;SDS011;54120;53.504;49.426;2023-02-13T03:24:21;18.67;;;9.27;;
67191;SDS011;54120;53.504;49.426;2023-02-13T03:32:34;18.42;;;9.07;;
67191;SDS011;54120;53.504;49.426;2023-02-13T03:38:13;16.98;;;8.98;;
67191;SDS011;54120;53.504;49.426;2023-02-13T03:43:57;20.02;;;10.55;;
67191;SDS011;54120;53.504;49.426;2023-02-13T03:46:25;20.67;;;10.88;;
67191;SDS011;54120;53.504;49.426;2023-02-13T03:48:53;19.80;;;10.00;;
67191;SDS011;54120;53.504;49.426;2023-02-13T03:51:42;20.35;;;10.30;;
67191;SDS011;54120;53.504;49.426;2023-02-13T03:54:17;18.60;;;10.57;;
67191;SDS011;54120;53.504;49.426;2023-02-13T03:57:14;21.85;;;9.07;;
67191;SDS011;54120;53.504;49.426;2023-02-13T04:00:05;18.50;;;10.45;;
67191;SDS011;54120;53.504;49.426;2023-02-13T04:02:36;16.98;;;9.10;;
67191;SDS011;54120;53.504;49.426;2023-02-13T04:05:14;18.33;;;8.40;;
67191;SDS011;54120;53.504;49.426;2023-02-13T04:07:45;17.50;;;10.00;;
67191;SDS011;54120;53.504;49.426;2023-02-13T04:10:12;21.45;;;9.15;;
67191;SDS011;54120;53.504;49.426;2023-02-13T04:12:52;16.80;;;8.43;;
67191;SDS011;54120;53.504;49.426;2023-02-13T04:15:40;14.98;;;8.82;;
67191;SDS011;54120;53.504;49.426;2023-02-13T04:20:43;17.55;;;8.98;;
67191;SDS011;54120;53.504;49.426;2023-02-13T04:23:09;15.45;;;8.77;;
67191;SDS011;54120;53.504;49.426;2023-02-13T04:25:37;16.23;;;9.60;;
67191;SDS011;54120;53.504;49.426;2023-02-13T04:28:05;18.80;;;9.90;;
67191;SDS011;54120;53.504;49.426;2023-02-13T04:30:31;21.85;;;9.77;;
67191;SDS011;54120;53.504;49.426;2023-02-13T04:32:58;18.98;;;8.90;;
67191;SDS011;54120;53.504;49.426;2023-02-13T04:35:24;18.30;;;10.35;;
67191;SDS011;54120;53.504;49.426;2023-02-13T04:37:50;16.67;;;8.85;;
67191;SDS011;54120;53.504;49.426;2023-02-13T04:40:16;18.92;;;10.05;;
67191;SDS011;54120;53.504;49.426;2023-02-13T04:42:42;19.02;;;9.93;;
67191;SDS011;54120;53.504;49.426;2023-02-13T04:45:08;19.40;;;9.65;;
67191;SDS011;54120;53.504;49.426;2023-02-13T04:47:34;17.50;;;9.38;;
67191;SDS011;54120;53.504;49.426;2023-02-13T04:50:00;20.17;;;9.88;;
67191;SDS011;54120;53.504;49.426;2023-02-13T04:52:26;20.02;;;11.07;;
67191;SDS011;54120;53.504;49.426;2023-02-13T04:54:52;18.42;;;10.43;;
67191;SDS011;54120;53.504;49.426;2023-02-13T04:57:18;19.27;;;10.15;;
67191;SDS011;54120;53.504;49.426;2023-02-13T04:59:44;16.38;;;9.00;;
67191;SDS011;54120;53.504;49.426;2023-02-13T05:02:10;17.45;;;9.20;;
67191;SDS011;54120;53.504;49.426;2023-02-13T05:04:36;21.17;;;10.35;;
67191;SDS011;54120;53.504;49.426;2023-02-13T05:07:02;20.10;;;10.95;;
67191;SDS011;54120;53.504;49.426;2023-02-13T05:09:28;12.05;;;6.28;;
67191;SDS011;54120;53.504;49.426;2023-02-13T05:11:54;19.60;;;9.68;;
67191;SDS011;54120;53.504;49.426;2023-02-13T05:14:20;17.27;;;9.48;;
67191;SDS011;54120;53.504;49.426;2023-02-13T05:16:46;17.38;;;9.07;;
67191;SDS011;54120;53.504;49.426;2023-02-13T05:19:14;16.38;;;9.48;;
67191;SDS011;54120;53.504;49.426;2023-02-13T05:21:41;17.33;;;9.52;;
67191;SDS011;54120;53.504;49.426;2023-02-13T05:24:25;18.50;;;9.35;;
67191;SDS011;54120;53.504;49.426;2023-02-13T05:26:51;18.27;;;9.77;;
67191;SDS011;54120;53.504;49.426;2023-02-13T05:29:17;17.30;;;9.48;;
67191;SDS011;54120;53.504;49.426;2023-02-13T05:31:44;14.27;;;8.55;;
67191;SDS011;54120;53.504;49.426;2023-02-13T05:34:11;18.02;;;9.65;;
67191;SDS011;54120;53.504;49.426;2023-02-13T05:36:37;19.05;;;8.80;;
67191;SDS011;54120;53.504;49.426;2023-02-13T05:39:04;25.77;;;10.68;;
67191;SDS011;54120;53.504;49.426;2023-02-13T05:41:30;19.88;;;9.85;;
67191;SDS011;54120;53.504;49.426;2023-02-13T05:43:56;15.48;;;8.65;;
67191;SDS011;54120;53.504;49.426;2023-02-13T05:46:23;16.33;;;9.18;;
67191;SDS011;54120;53.504;49.426;2023-02-13T05:48:48;14.15;;;8.23;;
67191;SDS011;54120;53.504;49.426;2023-02-13T05:51:15;25.33;;;9.95;;
67191;SDS011;54120;53.504;49.426;2023-02-13T05:53:41;16.33;;;9.18;;
67191;SDS011;54120;53.504;49.426;2023-02-13T05:56:07;15.20;;;8.73;;
67191;SDS011;54120;53.504;49.426;2023-02-13T05:58:33;23.38;;;10.75;;
67191;SDS011;54120;53.504;49.426;2023-02-13T06:00:59;26.05;;;9.68;;
67191;SDS011;54120;53.504;49.426;2023-02-13T06:03:27;19.00;;;9.38;;
67191;SDS011;54120;53.504;49.426;2023-02-13T06:05:54;15.20;;;8.95;;
67191;SDS011;54120;53.504;49.426;2023-02-13T06:08:21;15.80;;;8.52;;
67191;SDS011;54120;53.504;49.426;2023-02-13T06:10:48;18.67;;;8.98;;
67191;SDS011;54120;53.504;49.426;2023-02-13T06:13:15;18.58;;;9.13;;
67191;SDS011;54120;53.504;49.426;2023-02-13T06:15:41;16.63;;;8.70;;
67191;SDS011;54120;53.504;49.426;2023-02-13T06:18:08;15.82;;;8.63;;
67191;SDS011;54120;53.504;49.426;2023-02-13T06:20:34;16.13;;;8.93;;
67191;SDS011;54120;53.504;49.426;2023-02-13T06:23:00;13.65;;;8.38;;
67191;SDS011;54120;53.504;49.426;2023-02-13T06:25:26;17.27;;;9.40;;
67191;SDS011;54120;53.504;49.426;2023-02-13T06:27:53;17.55;;;9.45;;
67191;SDS011;54120;53.504;49.426;2023-02-13T06:30:19;18.83;;;9.63;;
67191;SDS011;54120;53.504;49.426;2023-02-13T06:32:45;15.80;;;9.00;;
67191;SDS011;54120;53.504;49.426;2023-02-13T06:35:12;14.93;;;8.50;;
67191;SDS011;54120;53.504;49.426;2023-02-13T06:37:39;16.52;;;8.50;;
67191;SDS011;54120;53.504;49.426;2023-02-13T06:40:06;16.38;;;9.05;;
67191;SDS011;54120;53.504;49.426;2023-02-13T06:42:32;17.48;;;10.20;;
67191;SDS011;54120;53.504;49.426;2023-02-13T06:44:58;14.30;;;8.32;;
67191;SDS011;54120;53.504;49.426;2023-02-13T06:47:24;14.80;;;9.45;;
67191;SDS011;54120;53.504;49.426;2023-02-13T06:49:50;15.00;;;9.05;;
67191;SDS011;54120;53.504;49.426;2023-02-13T06:52:16;16.90;;;9.70;;
67191;SDS011;54120;53.504;49.426;2023-02-13T06:54:42;17.50;;;9.75;;
67191;SDS011;54120;53.504;49.426;2023-02-13T06:57:08;13.95;;;8.48;;
67191;SDS011;54120;53.504;49.426;2023-02-13T06:59:34;14.93;;;8.45;;
67191;SDS011;54120;53.504;49.426;2023-02-13T07:02:00;18.17;;;8.82;;
67191;SDS011;54120;53.504;49.426;2023-02-13T07:04:26;13.93;;;8.07;;
67191;SDS011;54120;53.504;49.426;2023-02-13T07:06:55;13.95;;;8.15;;
67191;SDS011;54120;53.504;49.426;2023-02-13T07:09:22;14.40;;;8.38;;
67191;SDS011;54120;53.504;49.426;2023-02-13T07:11:48;13.75;;;7.30;;
67191;SDS011;54120;53.504;49.426;2023-02-13T07:14:15;13.35;;;7.03;;
67191;SDS011;54120;53.504;49.426;2023-02-13T07:16:40;14.95;;;8.77;;
67191;SDS011;54120;53.504;49.426;2023-02-13T07:19:06;16.58;;;8.95;;
67191;SDS011;54120;53.504;49.426;2023-02-13T07:21:32;12.98;;;8.02;;
67191;SDS011;54120;53.504;49.426;2023-02-13T07:23:58;14.95;;;9.10;;
67191;SDS011;54120;53.504;49.426;2023-02-13T07:26:25;16.33;;;8.88;;
67191;SDS011;54120;53.504;49.426;2023-02-13T07:28:51;13.95;;;7.50;;
67191;SDS011;54120;53.504;49.426;2023-02-13T07:31:17;15.50;;;8.90;;
67191;SDS011;54120;53.504;49.426;2023-02-13T07:33:43;18.27;;;9.63;;
67191;SDS011;54120;53.504;49.426;2023-02-13T07:36:13;14.77;;;7.97;;
67191;SDS011;54120;53.504;49.426;2023-02-13T07:38:39;15.32;;;8.20;;
67191;SDS011;54120;53.504;49.426;2023-02-13T07:41:05;12.48;;;7.78;;
67191;SDS011;54120;53.504;49.426;2023-02-13T07:43:31;13.15;;;8.43;;
67191;SDS011;54120;53.504;49.426;2023-02-13T07:45:58;13.05;;;7.97;;
67191;SDS011;54120;53.504;49.426;2023-02-13T07:48:25;14.27;;;8.00;;
67191;SDS011;54120;53.504;49.426;2023-02-13T07:50:52;13.23;;;7.60;;
67191;SDS011;54120;53.504;49.426;2023-02-13T07:53:20;15.55;;;8.27;;
67191;SDS011;54120;53.504;49.426;2023-02-13T07:55:47;14.40;;;7.20;;
67191;SDS011;54120;53.504;49.426;2023-02-13T07:58:13;15.00;;;7.22;;
67191;SDS011;54120;53.504;49.426;2023-02-13T08:00:39;12.52;;;8.30;;
67191;SDS011;54120;53.504;49.426;2023-02-13T08:03:04;12.73;;;6.85;;
67191;SDS011;54120;53.504;49.426;2023-02-13T08:05:31;14.82;;;7.90;;
67191;SDS011;54120;53.504;49.426;2023-02-13T08:07:58;13.32;;;8.27;;
67191;SDS011;54120;53.504;49.426;2023-02-13T08:10:24;12.80;;;8.07;;
67191;SDS011;54120;53.504;49.426;2023-02-13T08:13:08;14.48;;;7.78;;
67191;SDS011;54120;53.504;49.426;2023-02-13T08:15:37;12.50;;;7.57;;
67191;SDS011;54120;53.504;49.426;2023-02-13T08:18:03;16.48;;;8.52;;
67191;SDS011;54120;53.504;49.426;2023-02-13T08:20:29;10.80;;;6.40;;
67191;SDS011;54120;53.504;49.426;2023-02-13T08:23:03;14.00;;;7.95;;
67191;SDS011;54120;53.504;49.426;2023-02-13T08:25:31;12.63;;;7.50;;
67191;SDS011;54120;53.504;49.426;2023-02-13T08:27:58;12.05;;;7.63;;
67191;SDS011;54120;53.504;49.426;2023-02-13T08:30:24;14.60;;;7.80;;
67191;SDS011;54120;53.504;49.426;2023-02-13T08:32:51;14.60;;;8.80;;
67191;SDS011;54120;53.504;49.426;2023-02-13T08:35:17;12.80;;;7.63;;
67191;SDS011;54120;53.504;49.426;2023-02-13T08:37:43;11.43;;;6.78;;
67191;SDS011;54120;53.504;49.426;2023-02-13T08:40:09;9.73;;;6.57;;
67191;SDS011;54120;53.504;49.426;2023-02-13T08:42:35;10.93;;;6.75;;
67191;SDS011;54120;53.504;49.426;2023-02-13T08:45:02;13.98;;;8.75;;
67191;SDS011;54120;53.504;49.426;2023-02-13T08:47:28;10.90;;;6.80;;
67191;SDS011;54120;53.504;49.426;2023-02-13T08:49:54;10.55;;;6.75;;
67191;SDS011;54120;53.504;49.426;2023-02-13T08:52:20;17.38;;;10.30;;
67191;SDS011;54120;53.504;49.426;2023-02-13T08:54:46;9.00;;;6.22;;
67191;SDS011;54120;53.504;49.426;2023-02-13T08:57:12;10.25;;;6.60;;
67191;SDS011;54120;53.504;49.426;2023-02-13T08:59:38;9.05;;;6.18;;
67191;SDS011;54120;53.504;49.426;2023-02-13T09:02:04;9.30;;;6.15;;
67191;SDS011;54120;53.504;49.426;2023-02-13T09:04:30;9.23;;;5.60;;
67191;SDS011;54120;53.504;49.426;2023-02-13T09:06:57;10.45;;;6.93;;
67191;SDS011;54120;53.504;49.426;2023-02-13T09:09:23;10.05;;;7.03;;
67191;SDS011;54120;53.504;49.426;2023-02-13T09:11:49;10.52;;;7.13;;
67191;SDS011;54120;53.504;49.426;2023-02-13T09:14:16;9.07;;;5.80;;
67191;SDS011;54120;53.504;49.426;2023-02-13T09:16:42;8.48;;;5.57;;
67191;SDS011;54120;53.504;49.426;2023-02-13T09:19:08;9.38;;;6.82;;
67191;SDS011;54120;53.504;49.426;2023-02-13T09:21:34;9.35;;;6.82;;
67191;SDS011;54120;53.504;49.426;2023-02-13T09:24:00;12.02;;;6.50;;
67191;SDS011;54120;53.504;49.426;2023-02-13T09:26:26;10.15;;;7.43;;
67191;SDS011;54120;53.504;49.426;2023-02-13T09:28:52;9.63;;;6.15;;
67191;SDS011;54120;53.504;49.426;2023-02-13T09:31:18;11.20;;;7.40;;
67191;SDS011;54120;53.504;49.426;2023-02-13T09:33:46;10.70;;;7.18;;
67191;SDS011;54120;53.504;49.426;2023-02-13T09:36:14;9.23;;;6.72;;
67191;SDS011;54120;53.504;49.426;2023-02-13T09:38:43;10.80;;;7.57;;
67191;SDS011;54120;53.504;49.426;2023-02-13T09:41:22;10.90;;;6.40;;
67191;SDS011;54120;53.504;49.426;2023-02-13T09:46:37;9.50;;;5.97;;
67191;SDS011;54120;53.504;49.426;2023-02-13T09:49:06;10.18;;;7.03;;
67191;SDS011;54120;53.504;49.426;2023-02-13T09:51:37;12.43;;;6.80;;
67191;SDS011;54120;53.504;49.426;2023-02-13T09:54:05;9.95;;;7.05;;
67191;SDS011;54120;53.504;49.426;2023-02-13T10:02:49;10.15;;;7.20;;
67191;SDS011;54120;53.504;49.426;2023-02-13T10:05:05;10.07;;;6.88;;
67191;SDS011;54120;53.504;49.426;2023-02-13T10:10:52;10.63;;;7.03;;
67191;SDS011;54120;53.504;49.426;2023-02-13T10:16:35;11.43;;;7.10;;
67191;SDS011;54120;53.504;49.426;2023-02-13T10:21:51;11.93;;;6.93;;
67191;SDS011;54120;53.504;49.426;2023-02-13T10:27:03;9.85;;;6.68;;
67191;SDS011;54120;53.504;49.426;2023-02-13T10:29:43;13.82;;;8.32;;
67191;SDS011;54120;53.504;49.426;2023-02-13T10:35:17;10.98;;;7.45;;
67191;SDS011;54120;53.504;49.426;2023-02-13T10:37:44;11.52;;;7.30;;
67191;SDS011;54120;53.504;49.426;2023-02-13T10:40:15;10.43;;;7.07;;
67191;SDS011;54120;53.504;49.426;2023-02-13T10:42:43;12.07;;;7.45;;
67191;SDS011;54120;53.504;49.426;2023-02-13T10:53:58;14.80;;;8.20;;
67191;SDS011;54120;53.504;49.426;2023-02-13T10:56:42;10.52;;;7.85;;
67191;SDS011;54120;53.504;49.426;2023-02-13T10:59:26;13.25;;;9.20;;
67191;SDS011;54120;53.504;49.426;2023-02-13T11:04:57;11.68;;;7.90;;
67191;SDS011;54120;53.504;49.426;2023-02-13T11:07:25;13.80;;;8.93;;
67191;SDS011;54120;53.504;49.426;2023-02-13T11:09:54;13.57;;;9.20;;
67191;SDS011;54120;53.504;49.426;2023-02-13T11:12:30;13.05;;;8.75;;
67191;SDS011;54120;53.504;49.426;2023-02-13T11:14:59;15.85;;;9.68;;
67191;SDS011;54120;53.504;49.426;2023-02-13T11:17:26;12.85;;;9.48;;
67191;SDS011;54120;53.504;49.426;2023-02-13T11:19:56;17.52;;;9.95;;
67191;SDS011;54120;53.504;49.426;2023-02-13T11:22:45;14.90;;;9.98;;
67191;SDS011;54120;53.504;49.426;2023-02-13T11:25:17;14.25;;;9.52;;
67191;SDS011;54120;53.504;49.426;2023-02-13T11:27:48;14.52;;;10.00;;
67191;SDS011;54120;53.504;49.426;2023-02-13T11:35:43;12.88;;;8.48;;
67191;SDS011;54120;53.504;49.426;2023-02-13T11:40:46;13.05;;;9.43;;
67191;SDS011;54120;53.504;49.426;2023-02-13T11:43:35;14.73;;;8.90;;
67191;SDS011;54120;53.504;49.426;2023-02-13T11:46:41;11.77;;;8.60;;
67191;SDS011;54120;53.504;49.426;2023-02-13T11:51:49;11.48;;;8.45;;
67191;SDS011;54120;53.504;49.426;2023-02-13T11:56:59;13.48;;;8.57;;
67191;SDS011;54120;53.504;49.426;2023-02-13T11:59:46;14.13;;;8.27;;
67191;SDS011;54120;53.504;49.426;2023-02-13T12:04:46;12.10;;;8.10;;
67191;SDS011;54120;53.504;49.426;2023-02-13T12:09:46;11.15;;;7.65;;
67191;SDS011;54120;53.504;49.426;2023-02-13T12:12:27;11.48;;;8.52;;
67191;SDS011;54120;53.504;49.426;2023-02-13T12:15:03;10.85;;;7.25;;
67191;SDS011;54120;53.504;49.426;2023-02-13T12:17:43;11.13;;;8.43;;
67191;SDS011;54120;53.504;49.426;2023-02-13T12:20:14;9.65;;;7.38;;
67191;SDS011;54120;53.504;49.426;2023-02-13T12:36:05;9.98;;;7.82;;
67191;SDS011;54120;53.504;49.426;2023-02-13T12:41:18;9.82;;;7.60;;
67191;SDS011;54120;53.504;49.426;2023-02-13T12:49:47;9.77;;;7.35;;
67191;SDS011;54120;53.504;49.426;2023-02-13T12:52:41;10.23;;;7.72;;
67191;SDS011;54120;53.504;49.426;2023-02-13T13:00:55;10.73;;;7.43;;
67191;SDS011;54120;53.504;49.426;2023-02-13T13:03:38;9.68;;;7.43;;
67191;SDS011;54120;53.504;49.426;2023-02-13T13:06:28;9.20;;;7.22;;
67191;SDS011;54120;53.504;49.426;2023-02-13T13:16:40;9.07;;;6.88;;
67191;SDS011;54120;53.504;49.426;2023-02-13T13:25:14;8.43;;;6.28;;
67191;SDS011;54120;53.504;49.426;2023-02-13T13:28:03;7.60;;;6.25;;
67191;SDS011;54120;53.504;49.426;2023-02-13T13:30:36;7.65;;;6.35;;
67191;SDS011;54120;53.504;49.426;2023-02-13T13:33:23;7.70;;;5.80;;
67191;SDS011;54120;53.504;49.426;2023-02-13T13:38:59;7.57;;;6.20;;
67191;SDS011;54120;53.504;49.426;2023-02-13T13:41:59;7.95;;;6.22;;
67191;SDS011;54120;53.504;49.426;2023-02-13T13:49:47;8.77;;;6.40;;
67191;SDS011;54120;53.504;49.426;2023-02-13T13:52:18;9.57;;;7.22;;
67191;SDS011;54120;53.504;49.426;2023-02-13T13:54:45;7.78;;;6.10;;
67191;SDS011;54120;53.504;49.426;2023-02-13T13:57:16;8.95;;;6.72;;
67191;SDS011;54120;53.504;49.426;2023-02-13T14:07:43;8.25;;;6.60;;
67191;SDS011;54120;53.504;49.426;2023-02-13T14:12:46;8.52;;;6.40;;
67191;SDS011;54120;53.504;49.426;2023-02-13T14:23:18;8.32;;;6.70;;
67191;SDS011;54120;53.504;49.426;2023-02-13T14:28:35;8.25;;;6.25;;
67191;SDS011;54120;53.504;49.426;2023-02-13T14:36:45;7.50;;;6.00;;
67191;SDS011;54120;53.504;49.426;2023-02-13T14:39:26;7.40;;;6.15;;
67191;SDS011;54120;53.504;49.426;2023-02-13T14:44:35;7.88;;;5.85;;
67191;SDS011;54120;53.504;49.426;2023-02-13T14:47:11;7.93;;;5.97;;
67191;SDS011;54120;53.504;49.426;2023-02-13T14:49:39;6.88;;;5.85;;
67191;SDS011;54120;53.504;49.426;2023-02-13T14:52:17;7.75;;;5.65;;
67191;SDS011;54120;53.504;49.426;2023-02-13T14:54:53;8.17;;;5.57;;
67191;SDS011;54120;53.504;49.426;2023-02-13T14:57:39;7.00;;;5.47;;
67191;SDS011;54120;53.504;49.426;2023-02-13T15:00:19;8.60;;;6.30;;
67191;SDS011;54120;53.504;49.426;2023-02-13T15:02:48;9.15;;;6.70;;
67191;SDS011;54120;53.504;49.426;2023-02-13T15:05:18;8.63;;;6.13;;
67191;SDS011;54120;53.504;49.426;2023-02-13T15:07:46;9.73;;;7.00;;
67191;SDS011;54120;53.504;49.426;2023-02-13T15:10:26;9.05;;;7.20;;
67191;SDS011;54120;53.504;49.426;2023-02-13T15:15:54;9.93;;;7.22;;
67191;SDS011;54120;53.504;49.426;2023-02-13T15:20:52;10.15;;;7.18;;
67191;SDS011;54120;53.504;49.426;2023-02-13T15:23:22;12.93;;;8.32;;
67191;SDS011;54120;53.504;49.426;2023-02-13T15:25:57;12.40;;;8.43;;
67191;SDS011;54120;53.504;49.426;2023-02-13T15:28:28;12.05;;;8.55;;
67191;SDS011;54120;53.504;49.426;2023-02-13T15:30:57;11.80;;;8.52;;
67191;SDS011;54120;53.504;49.426;2023-02-13T15:33:25;10.07;;;7.03;;
67191;SDS011;54120;53.504;49.426;2023-02-13T15:35:53;10.50;;;7.35;;
67191;SDS011;54120;53.504;49.426;2023-02-13T15:38:27;11.13;;;7.65;;
67191;SDS011;54120;53.504;49.426;2023-02-13T15:45:58;9.20;;;6.15;;
67191;SDS011;54120;53.504;49.426;2023-02-13T15:48:27;11.23;;;6.93;;
67191;SDS011;54120;53.504;49.426;2023-02-13T15:50:54;7.53;;;6.25;;
67191;SDS011;54120;53.504;49.426;2023-02-13T15:53:20;7.57;;;5.97;;
67191;SDS011;54120;53.504;49.426;2023-02-13T15:56:00;7.55;;;5.65;;
67191;SDS011;54120;53.504;49.426;2023-02-13T15:58:29;9.07;;;6.07;;
67191;SDS011;54120;53.504;49.426;2023-02-13T16:01:02;9.10;;;6.60;;
67191;SDS011;54120;53.504;49.426;2023-02-13T16:03:31;7.82;;;5.85;;
67191;SDS011;54120;53.504;49.426;2023-02-13T16:05:59;8.57;;;5.82;;
67191;SDS011;54120;53.504;49.426;2023-02-13T16:11:13;6.35;;;5.25;;
67191;SDS011;54120;53.504;49.426;2023-02-13T16:17:02;8.38;;;4.97;;
67191;SDS011;54120;53.504;49.426;2023-02-13T16:19:30;5.97;;;4.38;;
67191;SDS011;54120;53.504;49.426;2023-02-13T16:35:40;5.35;;;4.55;;
67191;SDS011;54120;53.504;49.426;2023-02-13T16:38:24;7.25;;;4.13;;
67191;SDS011;54120;53.504;49.426;2023-02-13T16:40:50;5.68;;;4.30;;
67191;SDS011;54120;53.504;49.426;2023-02-13T16:43:35;6.35;;;4.57;;
67191;SDS011;54120;53.504;49.426;2023-02-13T16:56:24;7.68;;;5.28;;
67191;SDS011;54120;53.504;49.426;2023-02-13T16:59:01;7.55;;;5.50;;
67191;SDS011;54120;53.504;49.426;2023-02-13T17:01:43;8.30;;;6.38;;
67191;SDS011;54120;53.504;49.426;2023-02-13T17:04:21;8.05;;;6.20;;
67191;SDS011;54120;53.504;49.426;2023-02-13T17:06:58;7.57;;;6.20;;
67191;SDS011;54120;53.504;49.426;2023-02-13T17:09:24;7.53;;;5.63;;
67191;SDS011;54120;53.504;49.426;2023-02-13T17:11:50;8.23;;;6.22;;
67191;SDS011;54120;53.504;49.426;2023-02-13T17:14:17;7.90;;;5.82;;
67191;SDS011;54120;53.504;49.426;2023-02-13T17:16:45;10.57;;;6.10;;
67191;SDS011;54120;53.504;49.426;2023-02-13T17:19:12;8.07;;;5.68;;
67191;SDS011;54120;53.504;49.426;2023-02-13T17:21:40;7.32;;;5.47;;
67191;SDS011;54120;53.504;49.426;2023-02-13T17:24:06;5.72;;;4.80;;
67191;SDS011;54120;53.504;49.426;2023-02-13T17:26:36;5.95;;;4.80;;
67191;SDS011;54120;53.504;49.426;2023-02-13T17:29:02;7.07;;;4.30;;
67191;SDS011;54120;53.504;49.426;2023-02-13T17:31:28;7.10;;;5.28;;
67191;SDS011;54120;53.504;49.426;2023-02-13T17:33:54;5.63;;;4.80;;
67191;SDS011;54120;53.504;49.426;2023-02-13T17:36:20;7.53;;;3.88;;
67191;SDS011;54120;53.504;49.426;2023-02-13T17:38:48;6.35;;;4.70;;
67191;SDS011;54120;53.504;49.426;2023-02-13T17:41:15;7.15;;;4.68;;
67191;SDS011;54120;53.504;49.426;2023-02-13T17:43:43;19.17;;;8.80;;
67191;SDS011;54120;53.504;49.426;2023-02-13T17:46:09;5.07;;;3.90;;
67191;SDS011;54120;53.504;49.426;2023-02-13T17:48:35;7.05;;;4.60;;
67191;SDS011;54120;53.504;49.426;2023-02-13T17:51:01;4.45;;;3.85;;
67191;SDS011;54120;53.504;49.426;2023-02-13T17:53:28;4.57;;;3.80;;
67191;SDS011;54120;53.504;49.426;2023-02-13T17:55:55;5.13;;;4.03;;
67191;SDS011;54120;53.504;49.426;2023-02-13T17:58:21;6.18;;;4.80;;
67191;SDS011;54120;53.504;49.426;2023-02-13T18:00:47;7.78;;;4.20;;
67191;SDS011;54120;53.504;49.426;2023-02-13T18:03:25;13.45;;;4.32;;
67191;SDS011;54120;53.504;49.426;2023-02-13T18:05:51;8.18;;;3.85;;
67191;SDS011;54120;53.504;49.426;2023-02-13T18:08:17;5.45;;;4.15;;
67191;SDS011;54120;53.504;49.426;2023-02-13T18:10:44;6.35;;;4.47;;
67191;SDS011;54120;53.504;49.426;2023-02-13T18:13:10;5.88;;;3.97;;